• Join FlightAware (Why Join?)
  • Login
  • US Flag 
05:06AM EDT


 

Airport Tracker/Info


-or-


 

Live Flight TrackerFlight Track Log ✈ SWA3121 ✈ 28-Apr-2013 ✈ KBNA - KMCO

Flight Track Log - Related Links

Times and Time Zones

All times are in EDT time to prevent confusion due to time zone crossing. See the SWA3121 flight status page for this flight to view local times or setup timezone preferences in your user account.

Time Position Orientation Groundspeed Altitude Reporting Facility
EDT Latitude Longitude Course Direction KTS MPH feet Rate Location/Type
05:36PM 36.0333 -86.6667 174° South 223 257 4,500  Level Nashville TRACON
05:36PM 36.0222 -86.6614 159° South 225 259 5,400 3,300 Climbing Memphis Center
05:37PM 35.9647 -86.6281 155° Southeast 225 259 9,000 2,640 Climbing Memphis Center
05:38PM 35.8967 -86.5800 150° Southeast 263 303 10,700 2,400 Climbing Memphis Center
05:39PM 35.8117 -86.5250 152° Southeast 327 376 13,800 3,240 Climbing Memphis Center
05:40PM 35.7158 -86.4656 153° Southeast 369 425 17,200 3,180 Climbing Memphis Center
05:41PM 35.6044 -86.4375 168° South 375 432 20,200 2,820 Climbing Memphis Center
05:42PM 35.4994 -86.4169 171° South 382 440 22,900 1,860 Climbing Memphis Center
05:45PM 35.2547 -86.3228 163° South 398 458 26,600 1,560 Climbing Atlanta Center
05:46PM 35.1578 -86.2667 155° Southeast 398 458 28,300 1,500 Climbing Atlanta Center
05:47PM 35.0503 -86.2081 156° South 398 458 29,700 1,380 Climbing Atlanta Center
05:48PM 34.9642 -86.1272 142° Southeast 414 476 31,100 1,680 Climbing Atlanta Center
05:49PM 34.8722 -86.0008 132° Southeast 435 501 33,100 1,860 Climbing Atlanta Center
05:50PM 34.7864 -85.8875 133° Southeast 440 506 34,900 1,500 Climbing Atlanta Center
05:51PM 34.7000 -85.8047 142° Southeast 445 512 36,100 1,200 Climbing Atlanta Center
05:52PM 34.5944 -85.7344 151° Southeast 445 512 37,300 1,200 Climbing Atlanta Center
05:53PM 34.4889 -85.6642 151° Southeast 440 506 38,600 840 Climbing Atlanta Center
05:54PM 34.3833 -85.5942 151° Southeast 435 501 39,000 180 Climbing Atlanta Center
05:55PM 34.2781 -85.5194 150° Southeast 430 495 39,000  Level Atlanta Center
05:56PM 34.1744 -85.4500 151° Southeast 430 495 39,000  Level Atlanta Center
05:57PM 34.0647 -85.3753 151° Southeast 430 495 39,000  Level Atlanta Center
05:58PM 33.9547 -85.3061 152° Southeast 435 501 39,000  Level Atlanta Center
05:59PM 33.8364 -85.2292 152° Southeast 440 506 39,000  Level Atlanta Center
06:00PM 33.7267 -85.1578 152° Southeast 445 512 39,000  Level Atlanta Center
06:01PM 33.6144 -85.0839 151° Southeast 451 519 39,000  Level Atlanta Center
06:02PM 33.5086 -85.0131 151° Southeast 451 519 39,000  Level Atlanta Center
06:03PM 33.3986 -84.9419 152° Southeast 451 519 39,000  Level Atlanta Center
06:04PM 33.2906 -84.8714 151° Southeast 451 519 39,000  Level Atlanta Center
06:05PM 33.1844 -84.8058 153° Southeast 446 513 39,000  Level Atlanta Center
06:06PM 33.0700 -84.7528 159° South 441 507 39,000  Level Atlanta Center
06:07PM 32.9575 -84.7122 163° South 435 501 39,000  Level Atlanta Center
06:08PM 32.8408 -84.6717 164° South 430 495 39,000  Level Atlanta Center
06:09PM 32.7408 -84.6364 163° South 430 495 39,000  Level Atlanta Center
06:10PM 32.6261 -84.5986 164° South 425 489 39,000  Level Atlanta Center
06:11PM 32.5158 -84.5439 157° South 425 489 39,000  Level Atlanta Center
06:12PM 32.4097 -84.4644 148° Southeast 438 504 39,000  Level Atlanta Center
06:13PM 32.3075 -84.3878 148° Southeast 438 504 39,000  Level Atlanta Center
06:14PM 32.2033 -84.3114 148° Southeast 443 510 39,000  Level Atlanta Center
06:15PM 32.0992 -84.2375 149° Southeast 443 510 39,000  Level Atlanta Center
06:15PM 32.0511 -84.1989 146° Southeast 442 509 39,000  Level Jacksonville Center
06:16PM 31.9475 -84.1242 149° Southeast 437 503 39,000  Level Jacksonville Center
06:17PM 31.8419 -84.0494 149° Southeast 437 503 39,000  Level Jacksonville Center
06:18PM 31.7339 -83.9697 148° Southeast 448 516 39,000  Level Jacksonville Center
06:19PM 31.6364 -83.9003 149° Southeast 448 516 39,000  Level Jacksonville Center
06:20PM 31.5283 -83.8236 149° Southeast 454 522 39,000  Level Jacksonville Center
06:21PM 31.4244 -83.7447 147° Southeast 454 522 39,000  Level Jacksonville Center
06:22PM 31.3228 -83.6611 145° Southeast 449 517 39,000  Level Jacksonville Center
06:23PM 31.2253 -83.5728 142° Southeast 449 517 39,000 -540 Level Jacksonville Center
06:24PM 31.1233 -83.4800 142° Southeast 454 522 38,000 -1,800 Descending Jacksonville Center
06:25PM 31.0256 -83.3919 142° Southeast 459 528 35,400 -2,640 Descending Jacksonville Center
06:26PM 30.9236 -83.3019 143° Southeast 453 521 32,800 -1,800 Descending Jacksonville Center
06:27PM 30.8256 -83.2094 141° Southeast 458 527 31,900 -1,740 Descending Jacksonville Center
06:28PM 30.7236 -83.1172 142° Southeast 458 527 29,400 -1,500 Descending Jacksonville Center
06:29PM 30.6214 -83.0447 149° Southeast 451 519 29,000 -480 Descending Jacksonville Center
06:30PM 30.5233 -82.9650 145° Southeast 440 506 28,500 -960 Descending Jacksonville Center
06:31PM 30.4522 -82.8564 127° Southeast 421 484 27,100 -1,440 Descending Jacksonville Center
06:32PM 30.3731 -82.7578 133° Southeast 415 478 25,700 -1,080 Descending Jacksonville Center
06:33PM 30.2789 -82.6881 147° Southeast 410 472 25,000 -360 Descending Jacksonville Center
06:34PM 30.1703 -82.6211 152° Southeast 405 466 25,000  Level Jacksonville Center
06:35PM 30.0697 -82.5661 155° Southeast 400 460 25,000  Level Jacksonville Center
06:36PM 29.9800 -82.5161 154° Southeast 400 460 25,000  Level Jacksonville Center
06:37PM 29.8692 -82.4567 155° Southeast 400 460 25,000  Level Jacksonville Center
06:38PM 29.7686 -82.4044 156° South 400 460 25,000  Level Jacksonville Center
06:39PM 29.6703 -82.3500 154° Southeast 400 460 25,000  Level Jacksonville Center
06:40PM 29.5700 -82.2956 155° Southeast 400 460 25,000 -900 Level Jacksonville Center
06:41PM 29.4672 -82.2439 156° South 400 460 23,300 -1,920 Descending Jacksonville Center
06:42PM 29.3711 -82.1919 155° Southeast 395 455 21,200 -2,100 Descending Jacksonville Center
06:43PM 29.2769 -82.1403 154° Southeast 390 449 19,100 -2,100 Descending Jacksonville Center
06:44PM 29.1825 -82.0911 156° South 379 436 17,100 -2,100 Descending Jacksonville Center
06:45PM 29.0925 -82.0419 154° Southeast 374 430 15,000 -2,100 Descending Jacksonville Center
06:46PM 29.0067 -81.9975 156° South 361 415 13,000 -1,920 Descending Jacksonville Center
06:47PM 28.9208 -81.9508 155° Southeast 348 400 11,200 -1,080 Descending Jacksonville Center
06:48PM 28.8619 -81.8897 138° Southeast 302 348 10,900 -540 Descending Jacksonville Center
06:48PM 28.8333 -81.8500 129° Southeast 284 327 10,400 -1,020 Descending Orlando TRACON
06:49PM 28.8167 -81.7667 103° East 298 343 9,400 -1,080 Descending Orlando TRACON
06:50PM 28.8000 -81.6833 103° East 286 329 8,400 -1,080 Descending Orlando TRACON
06:51PM 28.8000 -81.5833 90° East 280 322 7,400 -900 Descending Orlando TRACON
06:52PM 28.7833 -81.5167 106° East 246 283 6,600 -720 Descending Orlando TRACON
06:53PM 28.7667 -81.4333 103° East 246 283 6,000 -600 Descending Orlando TRACON
06:54PM 28.7500 -81.3667 106° East 207 238 5,400 -840 Descending Orlando TRACON
06:55PM 28.7167 -81.3333 139° Southeast 200 230 4,400 -1,020 Descending Orlando TRACON
06:56PM 28.6667 -81.3000 150° Southeast 195 224 3,400 -720 Descending Orlando TRACON
06:57PM 28.6167 -81.2833 164° South 190 219 3,000 -480 Descending Orlando TRACON
06:58PM 28.5667 -81.2833 180° South 175 201 2,500 -600 Descending Orlando TRACON
06:59PM 28.5167 -81.3000 196° South 175 201 1,800 -780 Descending Orlando TRACON
07:00PM 28.4833 -81.3000 180° South 138 159 1,000 -840 Descending Orlando TRACON
07:02PM 28.4294 -81.3090 180° South  Level Estimated
07:09PM 28.4294 -81.3090 24° Northeast  Level Estimated
07:10PM 28.4294 -81.3090 24° Northeast  Level Estimated
07:11PM 28.4294 -81.3090 24° Northeast  Level Estimated
07:12PM 28.4294 -81.3090 24° Northeast  Level Estimated
07:13PM 28.4294 -81.3090 24° Northeast  Level Estimated